Time;durP1;ratioP1;P1;durP2;ratioP2;P2;SDS_P1;SDS_P2;PMS_P1;PMS_P2;Temp;Humidity;BMP_temperature;BMP_pressure;BME280_temperature;BME280_humidity;BME280_pressure;Samples;Min_cycle;Max_cycle;Signal;HPM_P1;HPM_P2
2022/12/27 00:00:28;;;;;;;;;;;;;;;;;;1047086;28;3964;-48
2022/12/27 00:01:31;;;;;;;;;;;;;;;;;;1049457;28;2832;-50
2022/12/27 00:02:08;;;;;;;;;;;;;;;;;;1048681;28;3959;-48
2022/12/27 00:02:39;;;;;;;;;;;;;;;;;;1045562;28;4055;-48
2022/12/27 00:03:09;;;;;;;;;;;;;;;;;;1042593;28;2809;-49
2022/12/27 00:03:40;;;;;;;;;;;;;;;;;;1043517;28;4079;-50
2022/12/27 00:04:10;;;;;;;;;;;;;;;;;;1043701;28;2092;-48
2022/12/27 00:04:40;;;;;;;;;;;;;;;;;;1044089;28;4029;-49
2022/12/27 00:05:11;;;;;;;;;;;;;;;;;;1043540;28;2478;-52
2022/12/27 00:05:42;;;;;;;;;;;;;;;;;;1043080;28;4055;-51
2022/12/27 00:06:14;;;;;;;;;;;;;;;;;;1043600;28;2857;-49
2022/12/27 00:06:44;;;;;;;;;;;;;;;;;;1044699;28;4027;-50
2022/12/27 00:07:15;;;;;;;;;;;;;;;;;;1043361;28;3255;-49
2022/12/27 00:07:45;;;;;;;;;;;;;;;;;;1044830;28;3851;-46
2022/12/27 00:08:15;;;;;;;;;;;;;;;;;;1042685;28;2765;-52
2022/12/27 00:08:46;;;;;;;;;;;;;;;;;;1045596;28;3948;-47
2022/12/27 00:09:16;;;;;;;;;;;;;;;;;;1044123;28;2510;-51
2022/12/27 00:09:46;;;;;;;;;;;;;;;;;;1044423;28;4198;-47
2022/12/27 00:10:16;;;;;;;;;;;;;;;;;;1043964;28;2832;-51
2022/12/27 00:10:47;;;;;;;;;;;;;;;;;;1042865;28;4044;-46
2022/12/27 00:11:19;;;;;;;;;;;;;;;;;;1044677;28;2907;-51
2022/12/27 00:11:49;;;;;;;;;;;;;;;;;;1043256;28;3819;-49
2022/12/27 00:12:19;;;;;;;;;;;;;;;;;;1042673;28;1358;-46
2022/12/27 00:12:49;;;;;;;;;;;;;;;;;;1043779;28;3854;-48
2022/12/27 00:13:20;;;;;;;;;;;;;;;;;;1044615;28;3034;-48
2022/12/27 00:13:50;;;;;;;;;;;;;;;;;;1046701;28;3825;-46
2022/12/27 00:14:20;;;;;;;;;;;;;;;;;;1044026;28;2746;-55
2022/12/27 00:14:51;;;;;;;;;;;;;;;;;;1043688;28;4159;-47
2022/12/27 00:15:21;;;;;;;;;;;;;;;;;;1044003;28;2841;-52
2022/12/27 00:15:51;;;;;;;;;;;;;;;;;;1045770;28;3773;-51
2022/12/27 00:16:21;;;;;;;;;;;;;;;;;;1045163;28;2760;-51
2022/12/27 00:16:52;;;;;;;;;;;;;;;;;;1044059;28;3765;-50
2022/12/27 00:17:22;;;;;;;;;;;;;;;;;;1046729;28;1761;-49
2022/12/27 00:17:52;;;;;;;;;;;;;;;;;;1046473;28;3847;-47
2022/12/27 00:18:23;;;;;;;;;;;;;;;;;;1044275;28;2990;-50
2022/12/27 00:18:53;;;;;;;;;;;;;;;;;;1042665;28;4330;-49
2022/12/27 00:19:23;;;;;;;;;;;;;;;;;;1043230;28;1906;-50
2022/12/27 00:19:54;;;;;;;;;;;;;;;;;;1042736;28;3957;-48
2022/12/27 00:20:24;;;;;;;;;;;;;;;;;;1044021;28;2666;-50
2022/12/27 00:20:58;;;;;;;;;;;;;;;;;;1046007;28;3776;-51
2022/12/27 00:21:28;;;;;;;;;;;;;;;;;;1043637;28;4382;-47
2022/12/27 00:21:58;;;;;;;;;;;;;;;;;;1046394;28;2380;-48
2022/12/27 00:22:29;;;;;;;;;;;;;;;;;;1043739;28;4360;-48
2022/12/27 00:23:00;;;;;;;;;;;;;;;;;;1043481;28;2381;-49
2022/12/27 00:23:31;;;;;;;;;;;;;;;;;;1043875;28;4122;-51
2022/12/27 00:24:02;;;;;;;;;;;;;;;;;;1044885;28;2409;-49
2022/12/27 00:24:34;;;;;;;;;;;;;;;;;;1045095;28;4201;-50
2022/12/27 00:25:04;;;;;;;;;;;;;;;;;;1041325;28;2804;-50
2022/12/27 00:25:34;;;;;;;;;;;;;;;;;;1044118;28;3899;-49
2022/12/27 00:26:06;;;;;;;;;;;;;;;;;;1044017;28;1798;-51
2022/12/27 00:26:38;;;;;;;;;;;;;;;;;;1041389;28;4030;-51
2022/12/27 00:27:08;;;;;;;;;;;;;;;;;;1046612;28;1742;-50
2022/12/27 00:27:38;;;;;;;;;;;;;;;;;;1042807;28;4382;-52
2022/12/27 00:28:08;;;;;;;;;;;;;;;;;;1046624;28;2835;-49
2022/12/27 00:28:39;;;;;;;;;;;;;;;;;;1045352;28;3977;-50
2022/12/27 00:29:09;;;;;;;;;;;;;;;;;;1045410;28;2285;-53
2022/12/27 00:29:39;;;;;;;;;;;;;;;;;;1046517;28;4403;-49
2022/12/27 00:30:10;;;;;;;;;;;;;;;;;;1039787;28;2897;-49
2022/12/27 00:30:40;;;;;;;;;;;;;;;;;;1040824;28;3992;-49
2022/12/27 00:31:11;;;;;;;;;;;;;;;;;;1041188;28;3014;-47
2022/12/27 00:31:41;;;;;;;;;;;;;;;;;;1042206;28;3907;-51
2022/12/27 00:32:11;;;;;;;;;;;;;;;;;;1046346;28;1800;-49
2022/12/27 00:32:42;;;;;;;;;;;;;;;;;;1044250;28;3812;-50
2022/12/27 00:33:12;;;;;;;;;;;;;;;;;;1042941;28;2842;-50
2022/12/27 00:33:43;;;;;;;;;;;;;;;;;;1044818;28;3958;-47
2022/12/27 00:34:13;;;;;;;;;;;;;;;;;;1045358;28;2805;-49
2022/12/27 00:34:43;;;;;;;;;;;;;;;;;;1042581;28;3784;-50
2022/12/27 00:35:14;;;;;;;;;;;;;;;;;;1043676;28;2683;-51
2022/12/27 00:35:44;;;;;;;;;;;;;;;;;;1045524;28;4258;-50
2022/12/27 00:36:16;;;;;;;;;;;;;;;;;;1050425;28;2006;-49
2022/12/27 00:36:46;;;;;;;;;;;;;;;;;;1042871;28;4373;-49
2022/12/27 00:37:17;;;;;;;;;;;;;;;;;;1045215;28;2120;-48
2022/12/27 00:37:47;;;;;;;;;;;;;;;;;;1044700;28;3842;-53
2022/12/27 00:38:17;;;;;;;;;;;;;;;;;;1046172;28;1616;-44
2022/12/27 00:38:48;;;;;;;;;;;;;;;;;;1043199;28;4081;-49
2022/12/27 00:39:19;;;;;;;;;;;;;;;;;;1046559;28;1918;-49
2022/12/27 00:39:49;;;;;;;;;;;;;;;;;;1042683;28;3937;-47
2022/12/27 00:40:20;;;;;;;;;;;;;;;;;;1045806;28;2174;-52
2022/12/27 00:40:50;;;;;;;;;;;;;;;;;;1044417;28;3823;-47
2022/12/27 00:41:20;;;;;;;;;;;;;;;;;;1047481;28;2019;-49
2022/12/27 00:41:50;;;;;;;;;;;;;;;;;;1043411;28;4398;-51
2022/12/27 00:42:21;;;;;;;;;;;;;;;;;;1043478;28;2600;-50
2022/12/27 00:42:51;;;;;;;;;;;;;;;;;;1044442;28;3896;-48
2022/12/27 00:43:21;;;;;;;;;;;;;;;;;;1044286;28;2837;-46
2022/12/27 00:43:51;;;;;;;;;;;;;;;;;;1043581;28;4426;-48
2022/12/27 00:44:22;;;;;;;;;;;;;;;;;;1044262;28;1717;-51
2022/12/27 00:44:52;;;;;;;;;;;;;;;;;;1042053;28;3863;-49
2022/12/27 00:45:22;;;;;;;;;;;;;;;;;;1042638;28;2947;-49
2022/12/27 00:45:52;;;;;;;;;;;;;;;;;;1043394;28;4152;-50
2022/12/27 00:46:23;;;;;;;;;;;;;;;;;;1044423;28;2366;-49
2022/12/27 00:46:53;;;;;;;;;;;;;;;;;;1042823;28;4048;-49
2022/12/27 00:47:24;;;;;;;;;;;;;;;;;;1045270;28;2785;-50
2022/12/27 00:47:54;;;;;;;;;;;;;;;;;;1046530;28;3738;-48
2022/12/27 00:48:24;;;;;;;;;;;;;;;;;;1042224;28;2528;-47
2022/12/27 00:48:54;;;;;;;;;;;;;;;;;;1041968;28;3704;-51
2022/12/27 00:49:25;;;;;;;;;;;;;;;;;;1044547;28;2345;-49
2022/12/27 00:49:55;;;;;;;;;;;;;;;;;;1043489;28;5784;-50
2022/12/27 00:50:25;;;;;;;;;;;;;;;;;;1044602;28;2589;-50
2022/12/27 00:51:04;;;;;;;;;;;;;;;;;;1043188;28;3719;-49
2022/12/27 00:51:35;;;;;;;;;;;;;;;;;;1046547;28;4026;-49
2022/12/27 00:52:05;;;;;;;;;;;;;;;;;;1044246;28;2772;-51
2022/12/27 00:52:35;;;;;;;;;;;;;;;;;;1045280;28;4033;-49
2022/12/27 00:53:06;;;;;;;;;;;;;;;;;;1043304;28;2089;-51
2022/12/27 00:53:37;;;;;;;;;;;;;;;;;;1044301;28;4419;-46
2022/12/27 00:54:07;;;;;;;;;;;;;;;;;;1043397;28;2979;-51
2022/12/27 00:54:44;;;;;;;;;;;;;;;;;;1042258;28;4694;-49
2022/12/27 00:55:15;;;;;;;;;;;;;;;;;;1043001;28;2665;-50
2022/12/27 00:55:45;;;;;;;;;;;;;;;;;;1045299;28;3954;-55
2022/12/27 00:56:19;;;;;;;;;;;;;;;;;;1045035;28;2903;-48
2022/12/27 00:56:50;;;;;;;;;;;;;;;;;;1044426;28;3789;-49
2022/12/27 00:57:20;;;;;;;;;;;;;;;;;;1044032;28;2554;-48
2022/12/27 00:57:50;;;;;;;;;;;;;;;;;;1044206;28;4383;-50
2022/12/27 00:58:20;;;;;;;;;;;;;;;;;;1047138;28;1802;-49
2022/12/27 00:58:52;;;;;;;;;;;;;;;;;;1042110;28;4204;-47
2022/12/27 00:59:22;;;;;;;;;;;;;;;;;;1045703;28;2927;-49
2022/12/27 00:59:52;;;;;;;;;;;;;;;;;;1045320;28;4162;-46
2022/12/27 01:00:23;;;;;;;;;;;;;;;;;;1045089;28;1845;-49
2022/12/27 01:00:53;;;;;;;;;;;;;;;;;;1044550;28;3975;-52
2022/12/27 01:01:40;;;;;;;;;;;;;;;;;;1048329;28;2851;-48
2022/12/27 01:02:17;;;;;;;;;;;;;;;;;;1050018;28;3980;-48
2022/12/27 01:02:48;;;;;;;;;;;;;;;;;;1047378;28;3783;-45
2022/12/27 01:03:18;;;;;;;;;;;;;;;;;;1048953;28;2462;-47
2022/12/27 01:03:49;;;;;;;;;;;;;;;;;;1046054;28;3904;-49
2022/12/27 01:04:19;;;;;;;;;;;;;;;;;;1048327;28;3102;-53
2022/12/27 01:04:49;;;;;;;;;;;;;;;;;;1046327;28;3890;-52
2022/12/27 01:05:20;;;;;;;;;;;;;;;;;;1048720;28;2762;-50
2022/12/27 01:05:51;;;;;;;;;;;;;;;;;;1044033;28;4004;-49
2022/12/27 01:06:22;;;;;;;;;;;;;;;;;;1045764;28;2845;-48
2022/12/27 01:06:52;;;;;;;;;;;;;;;;;;1042285;28;3842;-51
2022/12/27 01:07:23;;;;;;;;;;;;;;;;;;1044126;28;2796;-51
2022/12/27 01:07:54;;;;;;;;;;;;;;;;;;1047448;28;3989;-48
2022/12/27 01:08:24;;;;;;;;;;;;;;;;;;1048073;28;2128;-52
2022/12/27 01:08:55;;;;;;;;;;;;;;;;;;1046998;28;4095;-49
2022/12/27 01:09:25;;;;;;;;;;;;;;;;;;1041559;28;2868;-48
2022/12/27 01:09:55;;;;;;;;;;;;;;;;;;1043974;28;3972;-50
2022/12/27 01:10:25;;;;;;;;;;;;;;;;;;1044948;28;2583;-46
2022/12/27 01:10:56;;;;;;;;;;;;;;;;;;1044486;28;3946;-51
2022/12/27 01:11:27;;;;;;;;;;;;;;;;;;1048288;28;3018;-51
2022/12/27 01:11:57;;;;;;;;;;;;;;;;;;1047713;28;3900;-50
2022/12/27 01:12:27;;;;;;;;;;;;;;;;;;1045113;28;4033;-49
2022/12/27 01:13:01;;;;;;;;;;;;;;;;;;1045381;28;2634;-50
2022/12/27 01:13:32;;;;;;;;;;;;;;;;;;1045506;28;4068;-45
2022/12/27 01:14:03;;;;;;;;;;;;;;;;;;1042625;28;2660;-51
2022/12/27 01:14:33;;;;;;;;;;;;;;;;;;1043803;28;4499;-52
2022/12/27 01:15:04;;;;;;;;;;;;;;;;;;1043684;28;2903;-50
2022/12/27 01:15:35;;;;;;;;;;;;;;;;;;1045952;28;4397;-51
2022/12/27 01:16:15;;;;;;;;;;;;;;;;;;1047803;28;2907;-50
2022/12/27 01:16:46;;;;;;;;;;;;;;;;;;1048628;28;4042;-51
2022/12/27 01:17:16;;;;;;;;;;;;;;;;;;1048213;28;2583;-48
2022/12/27 01:17:47;;;;;;;;;;;;;;;;;;1047391;28;4403;-48
2022/12/27 01:18:17;;;;;;;;;;;;;;;;;;1052041;28;1632;-51
2022/12/27 01:18:48;;;;;;;;;;;;;;;;;;1049330;28;4015;-47
2022/12/27 01:19:18;;;;;;;;;;;;;;;;;;1050361;28;2704;-46
2022/12/27 01:19:48;;;;;;;;;;;;;;;;;;1048359;28;3777;-53
2022/12/27 01:20:19;;;;;;;;;;;;;;;;;;1048724;28;2213;-51
2022/12/27 01:20:49;;;;;;;;;;;;;;;;;;1049628;28;3886;-49
2022/12/27 01:21:20;;;;;;;;;;;;;;;;;;1048742;28;2240;-48
2022/12/27 01:21:51;;;;;;;;;;;;;;;;;;1049276;28;4069;-47
2022/12/27 01:22:21;;;;;;;;;;;;;;;;;;1046501;28;2818;-50
2022/12/27 01:22:53;;;;;;;;;;;;;;;;;;1050641;28;4156;-46
2022/12/27 01:23:24;;;;;;;;;;;;;;;;;;1050162;28;2170;-50
2022/12/27 01:23:55;;;;;;;;;;;;;;;;;;1048303;28;4369;-48
2022/12/27 01:24:25;;;;;;;;;;;;;;;;;;1047022;28;1453;-48
2022/12/27 01:24:55;;;;;;;;;;;;;;;;;;1047413;28;4283;-49
2022/12/27 01:25:26;;;;;;;;;;;;;;;;;;1050137;28;2167;-49
2022/12/27 01:26:00;;;;;;;;;;;;;;;;;;1050352;28;3951;-55
2022/12/27 01:26:30;;;;;;;;;;;;;;;;;;1049217;28;4136;-48
2022/12/27 01:27:00;;;;;;;;;;;;;;;;;;1051128;28;1543;-50
2022/12/27 01:27:30;;;;;;;;;;;;;;;;;;1047654;28;4030;-48
2022/12/27 01:28:01;;;;;;;;;;;;;;;;;;1049825;28;2099;-46
2022/12/27 01:28:31;;;;;;;;;;;;;;;;;;1048180;28;3808;-47
2022/12/27 01:29:01;;;;;;;;;;;;;;;;;;1050875;28;2485;-51
2022/12/27 01:29:31;;;;;;;;;;;;;;;;;;1049168;28;4344;-51
2022/12/27 01:30:06;;;;;;;;;;;;;;;;;;1049431;28;2669;-48
2022/12/27 01:30:36;;;;;;;;;;;;;;;;;;1047396;28;3791;-46
2022/12/27 01:31:08;;;;;;;;;;;;;;;;;;1050148;28;2311;-49
2022/12/27 01:31:39;;;;;;;;;;;;;;;;;;1046773;28;3871;-47
2022/12/27 01:32:09;;;;;;;;;;;;;;;;;;1050444;28;2162;-48
2022/12/27 01:32:39;;;;;;;;;;;;;;;;;;1048767;28;3821;-48
2022/12/27 01:33:10;;;;;;;;;;;;;;;;;;1049919;28;2192;-51
2022/12/27 01:33:40;;;;;;;;;;;;;;;;;;1049902;28;4377;-50
2022/12/27 01:34:10;;;;;;;;;;;;;;;;;;1047785;28;2969;-47
2022/12/27 01:34:41;;;;;;;;;;;;;;;;;;1049650;28;4013;-48
2022/12/27 01:35:11;;;;;;;;;;;;;;;;;;1047608;28;2766;-53
2022/12/27 01:35:41;;;;;;;;;;;;;;;;;;1050138;28;3857;-49
2022/12/27 01:36:13;;;;;;;;;;;;;;;;;;1046860;28;2695;-49
2022/12/27 01:36:43;;;;;;;;;;;;;;;;;;1048089;28;3876;-46
2022/12/27 01:37:13;;;;;;;;;;;;;;;;;;1048935;28;2076;-45
2022/12/27 01:37:44;;;;;;;;;;;;;;;;;;1048131;28;4026;-51
2022/12/27 01:38:14;;;;;;;;;;;;;;;;;;1047766;28;2207;-48
2022/12/27 01:38:46;;;;;;;;;;;;;;;;;;1049168;28;4159;-54
2022/12/27 01:39:17;;;;;;;;;;;;;;;;;;1047280;28;2091;-49
2022/12/27 01:39:47;;;;;;;;;;;;;;;;;;1047681;28;4069;-52
2022/12/27 01:40:17;;;;;;;;;;;;;;;;;;1047963;28;2028;-48
2022/12/27 01:40:47;;;;;;;;;;;;;;;;;;1048480;28;4380;-50
2022/12/27 01:43:05;;;;;;;;;;;;;;;;;;1046548;28;3868;-48
2022/12/27 01:43:36;;;;;;;;;;;;;;;;;;1044197;28;4020;-47
2022/12/27 01:44:32;;;;;;;;;;;;;;;;;;1044458;28;2757;-49
2022/12/27 01:45:23;;;;;;;;;;;;;;;;;;1042475;28;4002;-53
2022/12/27 01:45:53;;;;;;;;;;;;;;;;;;1048110;28;4170;-48
2022/12/27 01:46:23;;;;;;;;;;;;;;;;;;1047629;28;3155;-50
2022/12/27 01:46:54;;;;;;;;;;;;;;;;;;1046317;28;3890;-48
2022/12/27 01:47:39;;;;;;;;;;;;;;;;;;1048527;28;2979;-54
2022/12/27 01:48:12;;;;;;;;;;;;;;;;;;1046666;28;3840;-52
2022/12/27 01:48:43;;;;;;;;;;;;;;;;;;1049469;28;4393;-47
2022/12/27 01:49:13;;;;;;;;;;;;;;;;;;1045091;28;2986;-49
2022/12/27 01:49:54;;;;;;;;;;;;;;;;;;1047984;28;3829;-51
2022/12/27 01:50:25;;;;;;;;;;;;;;;;;;1048696;28;1428;-49
2022/12/27 01:50:57;;;;;;;;;;;;;;;;;;1047348;28;4187;-50
2022/12/27 01:51:27;;;;;;;;;;;;;;;;;;1046251;28;3969;-51
2022/12/27 01:51:58;;;;;;;;;;;;;;;;;;1048931;28;2485;-48
2022/12/27 01:52:33;;;;;;;;;;;;;;;;;;1044713;28;4067;-48
2022/12/27 01:53:09;;;;;;;;;;;;;;;;;;1045707;28;2896;-46
2022/12/27 01:53:41;;;;;;;;;;;;;;;;;;1042056;28;3845;-49
2022/12/27 01:54:11;;;;;;;;;;;;;;;;;;1046310;28;2225;-50
2022/12/27 01:54:42;;;;;;;;;;;;;;;;;;1046290;28;3921;-52
2022/12/27 01:55:30;;;;;;;;;;;;;;;;;;1048089;28;2726;-50
2022/12/27 01:56:02;;;;;;;;;;;;;;;;;;1047473;28;3982;-51
2022/12/27 01:56:33;;;;;;;;;;;;;;;;;;1050270;28;3778;-49
2022/12/27 01:57:03;;;;;;;;;;;;;;;;;;1046507;28;1865;-50
2022/12/27 01:57:33;;;;;;;;;;;;;;;;;;1045966;28;4070;-49
2022/12/27 01:58:07;;;;;;;;;;;;;;;;;;1045510;28;2767;-49
2022/12/27 01:58:46;;;;;;;;;;;;;;;;;;1045943;28;4334;-48
2022/12/27 01:59:16;;;;;;;;;;;;;;;;;;1049221;28;2818;-48
2022/12/27 01:59:47;;;;;;;;;;;;;;;;;;1047097;28;4048;-48
2022/12/27 02:00:17;;;;;;;;;;;;;;;;;;1049070;28;2756;-49
2022/12/27 02:00:48;;;;;;;;;;;;;;;;;;1047785;28;4025;-49
2022/12/27 02:01:33;;;;;;;;;;;;;;;;;;1047946;28;3225;-46
2022/12/27 02:02:11;;;;;;;;;;;;;;;;;;1049512;28;3846;-49
2022/12/27 02:02:41;;;;;;;;;;;;;;;;;;1050046;28;3877;-50
2022/12/27 02:03:13;;;;;;;;;;;;;;;;;;1046959;28;2423;-50
2022/12/27 02:03:45;;;;;;;;;;;;;;;;;;1049966;28;3919;-50
2022/12/27 02:04:17;;;;;;;;;;;;;;;;;;1049801;28;1983;-48
2022/12/27 02:04:47;;;;;;;;;;;;;;;;;;1047394;28;3788;-51
2022/12/27 02:05:19;;;;;;;;;;;;;;;;;;1047746;28;2855;-50
2022/12/27 02:05:50;;;;;;;;;;;;;;;;;;1048952;28;4439;-54
2022/12/27 02:06:21;;;;;;;;;;;;;;;;;;1049256;28;2753;-52
2022/12/27 02:06:51;;;;;;;;;;;;;;;;;;1048340;28;3944;-51
2022/12/27 02:07:24;;;;;;;;;;;;;;;;;;1048517;28;2820;-50
2022/12/27 02:08:12;;;;;;;;;;;;;;;;;;1047235;28;3872;-47
2022/12/27 02:08:52;;;;;;;;;;;;;;;;;;1049807;28;3948;-51
2022/12/27 02:09:27;;;;;;;;;;;;;;;;;;1048135;28;1653;-47
2022/12/27 02:09:58;;;;;;;;;;;;;;;;;;1048149;28;4072;-49
2022/12/27 02:10:29;;;;;;;;;;;;;;;;;;1049819;28;3889;-47
2022/12/27 02:10:59;;;;;;;;;;;;;;;;;;1050885;28;2764;-52
2022/12/27 02:12:20;;;;;;;;;;;;;;;;;;1047890;28;2785;-52
2022/12/27 02:12:51;;;;;;;;;;;;;;;;;;1049957;28;4035;-49
2022/12/27 02:13:21;;;;;;;;;;;;;;;;;;1051522;28;1622;-53
2022/12/27 02:13:51;;;;;;;;;;;;;;;;;;1047024;28;4016;-49
2022/12/27 02:14:36;;;;;;;;;;;;;;;;;;1050633;28;1507;-51
2022/12/27 02:15:07;;;;;;;;;;;;;;;;;;1048640;28;3907;-47
2022/12/27 02:15:38;;;;;;;;;;;;;;;;;;1049298;28;4084;-49
2022/12/27 02:16:12;;;;;;;;;;;;;;;;;;1047408;28;1451;-50
2022/12/27 02:16:42;;;;;;;;;;;;;;;;;;1046483;28;4032;-48
2022/12/27 02:17:23;;;;;;;;;;;;;;;;;;1047935;28;2608;-51
2022/12/27 02:17:54;;;;;;;;;;;;;;;;;;1046974;28;3869;-50
2022/12/27 02:18:24;;;;;;;;;;;;;;;;;;1048795;28;2733;-49
2022/12/27 02:18:54;;;;;;;;;;;;;;;;;;1048756;28;4120;-50
2022/12/27 02:19:37;;;;;;;;;;;;;;;;;;1047021;28;3650;-49
2022/12/27 02:20:13;;;;;;;;;;;;;;;;;;1048524;28;3826;-48
2022/12/27 02:20:48;;;;;;;;;;;;;;;;;;1049820;28;4087;-49
2022/12/27 02:21:19;;;;;;;;;;;;;;;;;;1047219;28;3006;-48
2022/12/27 02:22:01;;;;;;;;;;;;;;;;;;1048494;28;3838;-52
2022/12/27 02:24:47;;;;;;;;;;;;;;;;;;1049125;28;3805;-49
2022/12/27 02:25:31;;;;;;;;;;;;;;;;;;1046040;28;2894;-48
2022/12/27 02:26:01;;;;;;;;;;;;;;;;;;1049299;28;3841;-51
2022/12/27 02:26:52;;;;;;;;;;;;;;;;;;1047683;28;3790;-52
2022/12/27 02:27:37;;;;;;;;;;;;;;;;;;1049203;28;2855;-51
2022/12/27 02:28:26;;;;;;;;;;;;;;;;;;1048563;28;3722;-51
2022/12/27 02:29:00;;;;;;;;;;;;;;;;;;1047611;28;3791;-49
2022/12/27 02:29:42;;;;;;;;;;;;;;;;;;1049962;28;4230;-47
2022/12/27 02:30:12;;;;;;;;;;;;;;;;;;1042974;28;2893;-50
2022/12/27 02:30:43;;;;;;;;;;;;;;;;;;1046395;28;4234;-51
2022/12/27 02:31:15;;;;;;;;;;;;;;;;;;1043664;28;2730;-50
2022/12/27 02:31:46;;;;;;;;;;;;;;;;;;1046215;28;3929;-50
2022/12/27 02:32:23;;;;;;;;;;;;;;;;;;1046647;28;1690;-51
2022/12/27 02:32:55;;;;;;;;;;;;;;;;;;1047471;28;3852;-51
2022/12/27 02:33:28;;;;;;;;;;;;;;;;;;1047653;28;2789;-50
2022/12/27 02:33:59;;;;;;;;;;;;;;;;;;1046045;28;4122;-50
2022/12/27 02:34:33;;;;;;;;;;;;;;;;;;1043296;28;3894;-50
2022/12/27 02:35:18;;;;;;;;;;;;;;;;;;1046388;28;2763;-47
2022/12/27 02:36:18;;;;;;;;;;;;;;;;;;1046131;28;4076;-49
2022/12/27 02:36:57;;;;;;;;;;;;;;;;;;1040728;28;3812;-48
2022/12/27 02:37:30;;;;;;;;;;;;;;;;;;1042520;28;3986;-47
2022/12/27 02:38:03;;;;;;;;;;;;;;;;;;1046322;28;2470;-49
2022/12/27 02:38:36;;;;;;;;;;;;;;;;;;1046550;28;4405;-49
2022/12/27 02:39:07;;;;;;;;;;;;;;;;;;1048327;28;2108;-53
2022/12/27 02:39:40;;;;;;;;;;;;;;;;;;1047610;28;3986;-47
2022/12/27 02:53:57;;;;;;;;;;;;;;;;;;1035786;28;4148;-46
2022/12/27 02:54:33;;;;;;;;;;;;;;;;;;1035244;28;3911;-50
2022/12/27 02:55:14;;;;;;;;;;;;;;;;;;1036092;28;2809;-49
2022/12/27 02:58:07;;;;;;;;;;;;;;;;;;1044601;28;4034;-49
2022/12/27 02:58:56;;;;;;;;;;;;;;;;;;1031805;28;4005;-47
2022/12/27 02:59:35;;;;;;;;;;;;;;;;;;1034047;28;2903;-51
2022/12/27 03:03:27;;;;;;;;;;;;;;;;;;1047352;28;3863;-49
2022/12/27 03:04:03;;;;;;;;;;;;;;;;;;1045868;28;3830;-52
2022/12/27 03:04:42;;;;;;;;;;;;;;;;;;1046934;28;4144;-48
2022/12/27 03:05:17;;;;;;;;;;;;;;;;;;1047067;28;2999;-49
2022/12/27 03:06:38;;;;;;;;;;;;;;;;;;1047504;28;3867;-47
2022/12/27 03:06:51;;;;;;;;;;;;;;;;;;1049153;28;4218;-52
2022/12/27 03:07:26;;;;;;;;;;;;;;;;;;1045055;28;2731;-46
2022/12/27 03:08:07;;;;;;;;;;;;;;;;;;1046091;28;3929;-48
2022/12/27 03:08:56;;;;;;;;;;;;;;;;;;1044272;28;3866;-51
2022/12/27 03:15:56;;;;;;;;;;;;;;;;;;1047382;28;2656;-52
2022/12/27 03:16:54;;;;;;;;;;;;;;;;;;1049117;28;3714;-49
2022/12/27 03:17:28;;;;;;;;;;;;;;;;;;1045818;28;4084;-53
2022/12/27 03:18:10;;;;;;;;;;;;;;;;;;1046682;28;3905;-48
2022/12/27 03:18:55;;;;;;;;;;;;;;;;;;1045214;28;3781;-51
2022/12/27 03:25:28;;;;;;;;;;;;;;;;;;1049629;28;1641;-51
2022/12/27 03:25:59;;;;;;;;;;;;;;;;;;1049958;28;3863;-48
2022/12/27 03:26:32;;;;;;;;;;;;;;;;;;1051159;28;4499;-48
2022/12/27 03:27:16;;;;;;;;;;;;;;;;;;1049481;28;2177;-50
2022/12/27 03:33:11;;;;;;;;;;;;;;;;;;1048452;28;3824;-46
2022/12/27 03:33:13;;;;;;;;;;;;;;;;;;1047569;28;3959;-48
2022/12/27 03:33:44;;;;;;;;;;;;;;;;;;1050538;28;4273;-49
2022/12/27 03:34:34;;;;;;;;;;;;;;;;;;1047868;28;2301;-49
2022/12/27 03:35:08;;;;;;;;;;;;;;;;;;1050854;28;3883;-54
2022/12/27 03:38:02;;;;;;;;;;;;;;;;;;1047768;28;4034;-53
2022/12/27 03:38:35;;;;;;;;;;;;;;;;;;1047195;28;4358;-47
2022/12/27 03:39:09;;;;;;;;;;;;;;;;;;1051230;28;2276;-54
2022/12/27 03:39:45;;;;;;;;;;;;;;;;;;1050683;28;3963;-53
2022/12/27 03:40:37;;;;;;;;;;;;;;;;;;1049627;28;1640;-50
2022/12/27 03:43:39;;;;;;;;;;;;;;;;;;1048689;28;3777;-52
2022/12/27 03:44:25;;;;;;;;;;;;;;;;;;1049274;28;2219;-48
2022/12/27 03:44:56;;;;;;;;;;;;;;;;;;1048766;28;4353;-51
2022/12/27 03:46:32;;;;;;;;;;;;;;;;;;1049118;28;3040;-47
2022/12/27 03:46:35;;;;;;;;;;;;;;;;;;1048997;28;3841;-49
2022/12/27 03:47:17;;;;;;;;;;;;;;;;;;1043434;28;3969;-49
2022/12/27 03:47:53;;;;;;;;;;;;;;;;;;1043016;28;4064;-49
2022/12/27 03:48:25;;;;;;;;;;;;;;;;;;1043815;28;2996;-49
2022/12/27 03:49:03;;;;;;;;;;;;;;;;;;1046373;28;3987;-49
2022/12/27 03:49:37;;;;;;;;;;;;;;;;;;1048521;28;3800;-48
2022/12/27 03:50:12;;;;;;;;;;;;;;;;;;1049698;28;2926;-47
2022/12/27 03:50:45;;;;;;;;;;;;;;;;;;1047042;28;4396;-51
2022/12/27 03:51:20;;;;;;;;;;;;;;;;;;1048333;28;2506;-48
2022/12/27 03:52:10;;;;;;;;;;;;;;;;;;1046711;28;3778;-52
2022/12/27 03:53:00;;;;;;;;;;;;;;;;;;1047233;28;3900;-50
2022/12/27 03:53:42;;;;;;;;;;;;;;;;;;1046868;28;4072;-47
2022/12/27 03:54:25;;;;;;;;;;;;;;;;;;1049885;28;2787;-50
2022/12/27 03:54:56;;;;;;;;;;;;;;;;;;1048785;28;3976;-52
2022/12/27 03:55:26;;;;;;;;;;;;;;;;;;1048169;28;1693;-46
2022/12/27 03:55:57;;;;;;;;;;;;;;;;;;1049205;28;3866;-50
2022/12/27 03:56:27;;;;;;;;;;;;;;;;;;1052147;28;1672;-47
2022/12/27 03:57:02;;;;;;;;;;;;;;;;;;1043584;28;3773;-47
2022/12/27 03:57:33;;;;;;;;;;;;;;;;;;1041626;28;4347;-50
2022/12/27 03:58:09;;;;;;;;;;;;;;;;;;1039836;28;3087;-51
2022/12/27 03:58:40;;;;;;;;;;;;;;;;;;1043486;28;4054;-52
2022/12/27 03:59:10;;;;;;;;;;;;;;;;;;1046041;28;2750;-47
2022/12/27 03:59:41;;;;;;;;;;;;;;;;;;1047572;28;3826;-50
2022/12/27 04:00:11;;;;;;;;;;;;;;;;;;1044268;28;2773;-48
2022/12/27 04:00:42;;;;;;;;;;;;;;;;;;1044084;28;4393;-49
2022/12/27 04:01:12;;;;;;;;;;;;;;;;;;1045030;28;2798;-45
2022/12/27 04:01:55;;;;;;;;;;;;;;;;;;1045451;28;4403;-52
2022/12/27 04:02:32;;;;;;;;;;;;;;;;;;1044522;28;4087;-49
2022/12/27 04:03:03;;;;;;;;;;;;;;;;;;1045147;28;2926;-49
2022/12/27 04:03:33;;;;;;;;;;;;;;;;;;1043878;28;3872;-46
2022/12/27 04:04:03;;;;;;;;;;;;;;;;;;1045985;28;3027;-49
2022/12/27 04:04:34;;;;;;;;;;;;;;;;;;1045370;28;3790;-47
2022/12/27 04:05:05;;;;;;;;;;;;;;;;;;1043709;28;1819;-47
2022/12/27 04:05:35;;;;;;;;;;;;;;;;;;1045342;28;4254;-50
2022/12/27 04:06:05;;;;;;;;;;;;;;;;;;1044702;28;2630;-49
2022/12/27 04:06:35;;;;;;;;;;;;;;;;;;1043065;28;3870;-49
2022/12/27 04:07:06;;;;;;;;;;;;;;;;;;1044115;28;2662;-49
2022/12/27 04:07:36;;;;;;;;;;;;;;;;;;1046010;28;3933;-52
2022/12/27 04:35:08;;;;;;;;;;;;;;;;;;1043292;28;4162;-50
2022/12/27 04:35:38;;;;;;;;;;;;;;;;;;1042854;28;4425;-50
2022/12/27 04:36:09;;;;;;;;;;;;;;;;;;1044412;28;1753;-50
2022/12/27 04:36:39;;;;;;;;;;;;;;;;;;1040892;28;4456;-50
2022/12/27 04:37:16;;;;;;;;;;;;;;;;;;1040439;28;2864;-47
2022/12/27 04:37:46;;;;;;;;;;;;;;;;;;1036982;28;3958;-50
2022/12/27 04:38:16;;;;;;;;;;;;;;;;;;1041677;28;3007;-52
2022/12/27 04:38:47;;;;;;;;;;;;;;;;;;1044523;28;3890;-48
2022/12/27 04:39:17;;;;;;;;;;;;;;;;;;1045443;28;2539;-47
2022/12/27 04:54:55;;;;;;;;;;;;;;;;;;1049125;28;4154;-46
2022/12/27 04:55:23;;;;;;;;;;;;;;;;;;1044487;28;3924;-48
2022/12/27 04:55:53;;;;;;;;;;;;;;;;;;1045916;28;3918;-52
2022/12/27 04:56:23;;;;;;;;;;;;;;;;;;1045529;28;2654;-51
2022/12/27 04:56:53;;;;;;;;;;;;;;;;;;1043997;28;4169;-46
2022/12/27 04:57:25;;;;;;;;;;;;;;;;;;1043926;28;2956;-49
2022/12/27 04:57:56;;;;;;;;;;;;;;;;;;1046229;28;4001;-48
2022/12/27 04:58:26;;;;;;;;;;;;;;;;;;1042868;28;2819;-48
2022/12/27 05:02:25;;;;;;;;;;;;;;;;;;1043282;28;4124;-53
2022/12/27 05:03:04;;;;;;;;;;;;;;;;;;1044528;28;3954;-48
2022/12/27 05:03:35;;;;;;;;;;;;;;;;;;1043266;28;4111;-50
2022/12/27 05:04:06;;;;;;;;;;;;;;;;;;1043884;28;2783;-51
2022/12/27 05:04:37;;;;;;;;;;;;;;;;;;1044940;28;3916;-51
2022/12/27 05:05:08;;;;;;;;;;;;;;;;;;1044883;28;2790;-47
2022/12/27 05:05:39;;;;;;;;;;;;;;;;;;1046878;28;4106;-48
2022/12/27 05:06:10;;;;;;;;;;;;;;;;;;1044936;28;2167;-47
2022/12/27 05:06:40;;;;;;;;;;;;;;;;;;1042442;28;3936;-51
2022/12/27 05:14:00;;;;;;;;;;;;;;;;;;1045422;28;3877;-50
2022/12/27 05:14:30;;;;;;;;;;;;;;;;;;1043990;28;4177;-45
2022/12/27 05:15:01;;;;;;;;;;;;;;;;;;1047217;28;1715;-48
2022/12/27 05:15:31;;;;;;;;;;;;;;;;;;1044393;28;4065;-47
2022/12/27 05:16:01;;;;;;;;;;;;;;;;;;1043084;28;1853;-51
2022/12/27 05:16:38;;;;;;;;;;;;;;;;;;1044517;28;4425;-46
2022/12/27 05:17:08;;;;;;;;;;;;;;;;;;1046588;28;1681;-50
2022/12/27 05:17:39;;;;;;;;;;;;;;;;;;1044801;28;4452;-48
2022/12/27 05:18:09;;;;;;;;;;;;;;;;;;1046480;28;2786;-48
2022/12/27 05:18:39;;;;;;;;;;;;;;;;;;1045225;28;4008;-48
2022/12/27 05:19:11;;;;;;;;;;;;;;;;;;1045995;28;2601;-51
2022/12/27 05:19:47;;;;;;;;;;;;;;;;;;1043314;28;3953;-47
2022/12/27 05:20:18;;;;;;;;;;;;;;;;;;1043674;28;2130;-51
2022/12/27 05:20:48;;;;;;;;;;;;;;;;;;1042704;28;3784;-49
2022/12/27 05:21:19;;;;;;;;;;;;;;;;;;1046279;28;2068;-46
2022/12/27 05:25:54;;;;;;;;;;;;;;;;;;1046391;28;3759;-49
2022/12/27 05:26:25;;;;;;;;;;;;;;;;;;1046295;28;2684;-47
2022/12/27 05:26:56;;;;;;;;;;;;;;;;;;1046371;28;3891;-51
2022/12/27 05:27:26;;;;;;;;;;;;;;;;;;1045443;28;2121;-48
2022/12/27 05:27:56;;;;;;;;;;;;;;;;;;1045842;28;3725;-48
2022/12/27 05:28:27;;;;;;;;;;;;;;;;;;1043650;28;2881;-49
2022/12/27 05:28:58;;;;;;;;;;;;;;;;;;1043618;28;3944;-51
2022/12/27 05:29:34;;;;;;;;;;;;;;;;;;1043343;28;4052;-48
2022/12/27 05:30:05;;;;;;;;;;;;;;;;;;1044389;28;2667;-50
2022/12/27 05:30:36;;;;;;;;;;;;;;;;;;1044658;28;3889;-49
2022/12/27 05:31:06;;;;;;;;;;;;;;;;;;1044184;28;2664;-54
2022/12/27 05:31:37;;;;;;;;;;;;;;;;;;1044858;28;3786;-49